createdAt,value
2019-04-22T00:00:59.493Z,50.2
2019-04-22T00:07:35.719Z,50.8
2019-04-22T00:13:06.259Z,50.5
2019-04-22T00:18:29.927Z,50.8
2019-04-22T00:23:18.247Z,51
2019-04-22T00:28:30.165Z,51
2019-04-22T00:33:12.856Z,51.5
2019-04-22T00:38:36.657Z,51.7
2019-04-22T00:43:39.031Z,51.4
2019-04-22T00:49:52.098Z,51.7
2019-04-22T00:53:46.610Z,51.6
2019-04-22T00:58:49.782Z,51.7
2019-04-22T01:04:12.308Z,51.7
2019-04-22T01:09:09.902Z,51.7
2019-04-22T01:13:49.378Z,51.5
2019-04-22T01:18:58.765Z,51.8
2019-04-22T01:23:47.357Z,51.9
2019-04-22T01:28:30.024Z,51.9
2019-04-22T01:32:50.653Z,52.9
2019-04-22T01:39:08.796Z,53
2019-04-22T01:44:50.319Z,53.9
2019-04-22T01:49:45.732Z,54.1
2019-04-22T01:54:46.490Z,54.3
2019-04-22T01:59:19.576Z,54.1
2019-04-22T02:04:59.280Z,54.2
2019-04-22T02:10:18.581Z,54.3
2019-04-22T02:14:57.071Z,54.5
2019-04-22T02:20:24.810Z,54.2
2019-04-22T02:25:15.339Z,55.1
2019-04-22T02:30:20.752Z,54.5
2019-04-22T02:36:22.009Z,55.5
2019-04-22T02:40:44.098Z,55
2019-04-22T02:45:49.702Z,55.2
2019-04-22T02:50:36.014Z,54.9
2019-04-22T02:55:40.556Z,55.3
2019-04-22T03:01:13.221Z,55
2019-04-22T03:15:58.979Z,56
2019-04-22T03:21:23.666Z,56.3
2019-04-22T03:26:48.186Z,56.5
2019-04-22T03:32:12.394Z,56.3
2019-04-22T03:41:47.365Z,56.1
2019-04-22T03:47:01.216Z,55.9
2019-04-22T03:52:26.575Z,56.1
2019-04-22T03:57:45.555Z,56.1
2019-04-22T04:03:50.473Z,56.5
2019-04-22T04:14:00.314Z,56.6
2019-04-22T04:19:43.025Z,56.5
2019-04-22T04:24:53.280Z,56.8
2019-04-22T04:34:27.941Z,56.4
2019-04-22T04:39:42.571Z,55.9
2019-04-22T04:55:09.479Z,55.5
2019-04-22T05:00:21.400Z,55.5
2019-04-22T05:09:58.952Z,54.4
2019-04-22T05:14:36.543Z,53.8
2019-04-22T05:20:12.189Z,52.2
2019-04-22T05:25:11.567Z,51.9
2019-04-22T05:35:06.352Z,48.4
2019-04-22T05:40:08.336Z,46.6
2019-04-22T05:45:02.467Z,45.3
2019-04-22T05:50:18.569Z,44.8
2019-04-22T06:05:46.752Z,43.1
2019-04-22T06:15:37.133Z,40.6
2019-04-22T06:20:45.259Z,39.5
2019-04-22T06:36:07.891Z,36.7
2019-04-22T06:41:03.752Z,35.2
2019-04-22T06:46:07.917Z,35.9
2019-04-22T06:51:19.371Z,34.4
2019-04-22T06:56:15.395Z,34.8
2019-04-22T07:01:35.347Z,34.1
2019-04-22T07:06:34.659Z,33.6
2019-04-22T07:11:23.479Z,32.6
2019-04-22T07:16:50.898Z,32.5
2019-04-22T07:21:36.632Z,30.5
2019-04-22T07:27:20.463Z,29.6
2019-04-22T07:31:49.173Z,29
2019-04-22T07:37:46.768Z,29.2
2019-04-22T07:41:55.764Z,27.8
2019-04-22T07:47:37.282Z,25.9
2019-04-22T07:52:15.688Z,25
2019-04-22T07:57:32.205Z,23.5
2019-04-22T08:02:37.243Z,22.1
2019-04-22T08:07:41.955Z,21.1
2019-04-22T08:13:03.508Z,21
2019-04-22T08:18:08.440Z,19.4
2019-04-22T08:23:08.607Z,16.2
2019-04-22T08:28:02.844Z,18.7
2019-04-22T08:32:52.275Z,21.4
2019-04-22T08:43:45.664Z,20.1
2019-04-22T08:48:35.969Z,19.3
2019-04-22T08:53:13.976Z,17.9
2019-04-22T08:58:31.004Z,17.3
2019-04-22T09:03:57.730Z,18.2
2019-04-22T09:08:53.702Z,17.4
2019-04-22T09:13:54.704Z,18.1
2019-04-22T09:19:11.845Z,17
2019-04-22T09:23:58.162Z,18
2019-04-22T09:29:12.242Z,17.2
2019-04-22T09:34:06.266Z,17.1
2019-04-22T09:39:20.893Z,15.8
2019-04-22T09:44:14.610Z,14.6
2019-04-22T09:49:26.075Z,14.3
2019-04-22T09:59:34.518Z,13.5
2019-04-22T10:04:32.808Z,14.7
2019-04-22T10:10:41.327Z,14.8
2019-04-22T10:15:19.378Z,14.2
2019-04-22T10:20:05.260Z,14.2
2019-04-22T10:25:10.301Z,14.8
2019-04-22T10:30:21.520Z,15.9
2019-04-22T10:34:31.140Z,17.4
2019-04-22T10:38:32.445Z,18.2
2019-04-22T10:43:41.190Z,18.4
2019-04-22T10:48:38.441Z,23.7
2019-04-22T10:53:46.789Z,27.9
2019-04-22T10:58:54.757Z,30.5
2019-04-22T11:04:04.651Z,32.4
2019-04-22T11:09:16.270Z,34.8
2019-04-22T11:19:21.395Z,37
2019-04-22T11:24:26.632Z,37.7
2019-04-22T11:29:25.539Z,37.3
2019-04-22T11:34:30.968Z,36.7
2019-04-22T11:39:42.606Z,36.1
2019-04-22T11:44:57.123Z,35.4
2019-04-22T11:50:03.712Z,35.3
2019-04-22T11:54:54.839Z,37.3
2019-04-22T12:00:04.959Z,36.8
2019-04-22T12:05:09.979Z,37
2019-04-22T12:10:49.141Z,36
2019-04-22T12:15:10.570Z,36.7
2019-04-22T12:20:23.303Z,37.7
2019-04-22T12:26:03.421Z,38.4
2019-04-22T12:30:27.837Z,38.9
2019-04-22T12:35:36.922Z,39.7
2019-04-22T12:41:05.920Z,41.2
2019-04-22T12:45:45.866Z,41.9
2019-04-22T12:51:04.921Z,43.2
2019-04-22T12:55:57.325Z,43.2
2019-04-22T13:00:58.916Z,42.6
2019-04-22T13:06:03.741Z,42.2
2019-04-22T13:11:28.716Z,41.3
2019-04-22T13:16:10.914Z,40.9
2019-04-22T13:21:12.893Z,42.3
2019-04-22T13:26:23.139Z,42
2019-04-22T13:32:34.623Z,41.5
2019-04-22T13:36:36.611Z,41.9
2019-04-22T13:42:02.003Z,42
2019-04-22T13:47:45.671Z,42.2
2019-04-22T13:59:44.430Z,41
2019-04-22T14:07:12.631Z,38.9
2019-04-22T14:12:20.292Z,39
2019-04-22T14:17:22.955Z,38.2
2019-04-22T14:22:21.988Z,38.1
2019-04-22T14:28:04.050Z,38.4
2019-04-22T14:32:42.017Z,38.8
2019-04-22T14:37:40.273Z,38.8
2019-04-22T14:45:04.576Z,39.4
2019-04-22T14:49:36.286Z,40
2019-04-22T14:54:22.294Z,41.1
2019-04-22T14:57:56.942Z,41.1
2019-04-22T15:03:05.845Z,40.8
2019-04-22T15:08:06.781Z,40.8
2019-04-22T15:13:15.558Z,39.4
2019-04-22T15:18:13.193Z,38.5
2019-04-22T15:23:22.435Z,37.8
2019-04-22T15:28:31.284Z,37.6
2019-04-22T15:33:35.125Z,37.7
2019-04-22T15:38:34.219Z,38.2
2019-04-22T15:43:43.656Z,38.3
2019-04-22T15:48:53.682Z,39
2019-04-22T15:53:53.925Z,39.6
2019-04-22T15:58:53.490Z,40
2019-04-22T16:04:02.738Z,40.3
2019-04-22T16:09:13.159Z,40.5
2019-04-22T16:14:14.973Z,40.1
2019-04-22T16:19:21.073Z,39.8
2019-04-22T16:24:29.797Z,39.8
2019-04-22T16:29:37.192Z,39.5
2019-04-22T16:34:45.379Z,39.7
2019-04-22T16:39:58.880Z,39.9
2019-04-22T16:44:57.529Z,40
2019-04-22T16:50:07.859Z,40.2
2019-04-22T16:55:10.660Z,40.7
2019-04-22T17:00:13.054Z,40.8
2019-04-22T17:05:22.952Z,40.9
2019-04-22T17:10:29.836Z,41.5
2019-04-22T17:15:39.624Z,42
2019-04-22T17:25:54.423Z,43.2
2019-04-22T17:31:02.885Z,43.7
2019-04-22T17:36:11.901Z,44.3
2019-04-22T17:42:35.214Z,44.7
2019-04-22T17:47:36.345Z,44.9
2019-04-22T17:53:13.515Z,45.2
2019-04-22T17:58:07.270Z,47.4
2019-04-22T18:02:54.630Z,45.6
2019-04-22T18:08:23.157Z,46
2019-04-22T18:13:37.753Z,46.9
2019-04-22T18:18:36.744Z,47.7
2019-04-22T18:22:51.893Z,48.4
2019-04-22T18:28:53.898Z,49
2019-04-22T18:33:02.531Z,49.5
2019-04-22T18:38:31.250Z,49.9
2019-04-22T18:43:21.262Z,50.3
2019-04-22T18:48:08.396Z,50.6
2019-04-22T18:53:41.397Z,51.1
2019-04-22T18:58:08.327Z,51.4
2019-04-22T19:02:32.070Z,51.8
2019-04-22T19:09:10.409Z,52.4
2019-04-22T19:14:23.955Z,53.1
2019-04-22T19:19:32.084Z,53.7
2019-04-22T19:24:28.800Z,54.5
2019-04-22T19:29:36.667Z,55.4
2019-04-22T19:34:31.586Z,56.2
2019-04-22T19:39:11.615Z,56.9
2019-04-22T19:44:37.354Z,57.9
2019-04-22T19:50:22.581Z,58.8
2019-04-22T19:55:00.979Z,59.9
2019-04-22T19:59:20.438Z,61.3
2019-04-22T20:05:19.698Z,62.5
2019-04-22T20:10:04.201Z,64
2019-04-22T20:15:00.092Z,65.1
2019-04-22T20:22:17.315Z,66.5
2019-04-22T20:27:22.323Z,67.3
2019-04-22T20:32:37.159Z,67.7
2019-04-22T20:38:24.456Z,68.3
2019-04-22T20:42:48.223Z,69
2019-04-22T20:47:30.133Z,69.5
2019-04-22T20:53:11.382Z,69.9
2019-04-22T20:57:47.478Z,70.2
2019-04-22T21:02:36.081Z,70.7
2019-04-22T21:08:02.310Z,71.1
2019-04-22T21:12:50.649Z,71.3
2019-04-22T21:18:09.309Z,71.7
2019-04-22T21:23:22.767Z,71.8
2019-04-22T21:28:38.012Z,72.3
2019-04-22T21:33:23.325Z,72.7
2019-04-22T21:38:52.903Z,73
2019-04-22T21:43:41.939Z,73.6
2019-04-22T21:49:18.305Z,73.8
2019-04-22T21:54:26.323Z,74.1
2019-04-22T21:59:17.130Z,74.6
2019-04-22T22:04:11.094Z,74.8
2019-04-22T22:08:22.809Z,74.9
2019-04-22T22:14:16.547Z,75.1
2019-04-22T22:18:55.143Z,75.1
2019-04-22T22:24:56.239Z,75.3
2019-04-22T22:34:26.401Z,75.8
2019-04-22T22:39:16.879Z,76
2019-04-22T22:43:41.936Z,76.2
2019-04-22T22:50:15.701Z,76.7
2019-04-22T22:55:03.711Z,76.9
2019-04-22T22:59:58.526Z,77.1
2019-04-22T23:05:03.714Z,77.2
2019-04-22T23:10:05.910Z,77.4
2019-04-22T23:15:04.535Z,77.6
2019-04-22T23:18:34.933Z,77.7
2019-04-22T23:25:15.860Z,77.9
2019-04-22T23:29:42.934Z,77.9
2019-04-22T23:35:06.369Z,78.2
2019-04-22T23:40:42.381Z,78.6
2019-04-22T23:45:32.818Z,78.6
2019-04-22T23:50:12.286Z,78.7
2019-04-22T23:55:43.139Z,79
